sensor_id;sensor_type;location;lat;lon;timestamp;temperature;humidity
41816;DHT22;27814;53.452;-6.180;2022-09-09T00:01:04;18.00;99.90
41816;DHT22;27814;53.452;-6.180;2022-09-09T00:03:43;17.90;99.90
41816;DHT22;27814;53.452;-6.180;2022-09-09T00:06:20;17.90;99.90
41816;DHT22;27814;53.452;-6.180;2022-09-09T00:08:57;17.90;99.90
41816;DHT22;27814;53.452;-6.180;2022-09-09T00:11:32;17.90;99.90
41816;DHT22;27814;53.452;-6.180;2022-09-09T00:14:11;17.80;99.90
41816;DHT22;27814;53.452;-6.180;2022-09-09T00:16:44;17.90;99.90
41816;DHT22;27814;53.452;-6.180;2022-09-09T00:19:20;17.90;99.90
41816;DHT22;27814;53.452;-6.180;2022-09-09T00:22:00;17.90;99.90
41816;DHT22;27814;53.452;-6.180;2022-09-09T00:24:35;17.90;99.90
41816;DHT22;27814;53.452;-6.180;2022-09-09T00:27:11;17.80;99.90
41816;DHT22;27814;53.452;-6.180;2022-09-09T00:29:46;17.80;99.90
41816;DHT22;27814;53.452;-6.180;2022-09-09T00:32:17;17.80;99.90
41816;DHT22;27814;53.452;-6.180;2022-09-09T00:34:49;17.80;99.90
41816;DHT22;27814;53.452;-6.180;2022-09-09T00:37:21;17.80;99.90
41816;DHT22;27814;53.452;-6.180;2022-09-09T00:39:55;17.80;99.90
41816;DHT22;27814;53.452;-6.180;2022-09-09T00:42:29;17.70;99.90
41816;DHT22;27814;53.452;-6.180;2022-09-09T00:45:05;17.70;99.90
41816;DHT22;27814;53.452;-6.180;2022-09-09T00:47:44;17.70;99.90
41816;DHT22;27814;53.452;-6.180;2022-09-09T00:50:22;17.60;99.90
41816;DHT22;27814;53.452;-6.180;2022-09-09T00:53:05;17.60;99.90
41816;DHT22;27814;53.452;-6.180;2022-09-09T00:55:45;17.60;99.90
41816;DHT22;27814;53.452;-6.180;2022-09-09T00:58:15;17.60;99.90
41816;DHT22;27814;53.452;-6.180;2022-09-09T01:00:46;17.60;99.90
41816;DHT22;27814;53.452;-6.180;2022-09-09T01:03:29;17.50;99.90
41816;DHT22;27814;53.452;-6.180;2022-09-09T01:06:11;17.50;99.90
41816;DHT22;27814;53.452;-6.180;2022-09-09T01:09:15;17.50;99.90
41816;DHT22;27814;53.452;-6.180;2022-09-09T01:11:55;17.50;99.90
41816;DHT22;27814;53.452;-6.180;2022-09-09T01:14:38;17.50;99.90
41816;DHT22;27814;53.452;-6.180;2022-09-09T01:17:13;17.50;99.90
41816;DHT22;27814;53.452;-6.180;2022-09-09T01:19:52;17.60;99.90
41816;DHT22;27814;53.452;-6.180;2022-09-09T01:22:28;17.60;99.90
41816;DHT22;27814;53.452;-6.180;2022-09-09T01:28:09;17.60;99.90
41816;DHT22;27814;53.452;-6.180;2022-09-09T01:30:40;17.60;99.90
41816;DHT22;27814;53.452;-6.180;2022-09-09T01:33:13;17.50;99.90
41816;DHT22;27814;53.452;-6.180;2022-09-09T01:35:48;17.60;99.90
41816;DHT22;27814;53.452;-6.180;2022-09-09T01:38:21;17.50;99.90
41816;DHT22;27814;53.452;-6.180;2022-09-09T01:40:51;17.50;99.90
41816;DHT22;27814;53.452;-6.180;2022-09-09T01:43:21;17.50;99.90
41816;DHT22;27814;53.452;-6.180;2022-09-09T01:45:53;17.50;99.90
41816;DHT22;27814;53.452;-6.180;2022-09-09T01:48:24;17.50;99.90
41816;DHT22;27814;53.452;-6.180;2022-09-09T01:50:52;17.40;99.90
41816;DHT22;27814;53.452;-6.180;2022-09-09T01:53:21;17.40;99.90
41816;DHT22;27814;53.452;-6.180;2022-09-09T01:55:58;17.40;99.90
41816;DHT22;27814;53.452;-6.180;2022-09-09T01:58:34;17.50;99.90
41816;DHT22;27814;53.452;-6.180;2022-09-09T02:01:10;17.50;99.90
41816;DHT22;27814;53.452;-6.180;2022-09-09T02:03:44;17.50;99.90
41816;DHT22;27814;53.452;-6.180;2022-09-09T02:06:24;17.50;99.90
41816;DHT22;27814;53.452;-6.180;2022-09-09T02:08:56;17.50;99.90
41816;DHT22;27814;53.452;-6.180;2022-09-09T02:11:26;17.50;99.90
41816;DHT22;27814;53.452;-6.180;2022-09-09T02:14:00;17.50;99.90
41816;DHT22;27814;53.452;-6.180;2022-09-09T02:16:32;17.50;99.90
41816;DHT22;27814;53.452;-6.180;2022-09-09T02:19:07;17.40;99.90
41816;DHT22;27814;53.452;-6.180;2022-09-09T02:21:37;17.40;99.90
41816;DHT22;27814;53.452;-6.180;2022-09-09T02:24:07;17.40;99.90
41816;DHT22;27814;53.452;-6.180;2022-09-09T02:26:40;17.40;99.90
41816;DHT22;27814;53.452;-6.180;2022-09-09T02:29:15;17.40;99.90
41816;DHT22;27814;53.452;-6.180;2022-09-09T02:31:46;17.40;99.90
41816;DHT22;27814;53.452;-6.180;2022-09-09T02:34:18;17.40;99.90
41816;DHT22;27814;53.452;-6.180;2022-09-09T02:36:49;17.40;99.90
41816;DHT22;27814;53.452;-6.180;2022-09-09T02:39:19;17.50;99.90
41816;DHT22;27814;53.452;-6.180;2022-09-09T02:41:47;17.40;99.90
41816;DHT22;27814;53.452;-6.180;2022-09-09T02:44:18;17.50;99.90
41816;DHT22;27814;53.452;-6.180;2022-09-09T02:47:01;17.50;99.90
41816;DHT22;27814;53.452;-6.180;2022-09-09T02:49:40;17.40;99.90
41816;DHT22;27814;53.452;-6.180;2022-09-09T02:52:14;17.50;99.90
41816;DHT22;27814;53.452;-6.180;2022-09-09T02:54:43;17.50;99.90
41816;DHT22;27814;53.452;-6.180;2022-09-09T02:57:14;17.50;99.90
41816;DHT22;27814;53.452;-6.180;2022-09-09T02:59:46;17.40;99.90
41816;DHT22;27814;53.452;-6.180;2022-09-09T03:02:15;17.40;99.90
41816;DHT22;27814;53.452;-6.180;2022-09-09T03:04:43;17.40;99.90
41816;DHT22;27814;53.452;-6.180;2022-09-09T03:07:17;17.30;99.90
41816;DHT22;27814;53.452;-6.180;2022-09-09T03:09:46;17.30;99.90
41816;DHT22;27814;53.452;-6.180;2022-09-09T03:12:14;17.20;99.90
41816;DHT22;27814;53.452;-6.180;2022-09-09T03:14:44;17.10;99.90
41816;DHT22;27814;53.452;-6.180;2022-09-09T03:17:13;17.20;99.90
41816;DHT22;27814;53.452;-6.180;2022-09-09T03:19:41;17.10;99.90
41816;DHT22;27814;53.452;-6.180;2022-09-09T03:22:11;17.10;99.90
41816;DHT22;27814;53.452;-6.180;2022-09-09T03:24:40;17.00;99.90
41816;DHT22;27814;53.452;-6.180;2022-09-09T03:27:08;17.00;99.90
41816;DHT22;27814;53.452;-6.180;2022-09-09T03:29:37;16.90;99.90
41816;DHT22;27814;53.452;-6.180;2022-09-09T03:32:06;16.90;99.90
41816;DHT22;27814;53.452;-6.180;2022-09-09T03:34:36;16.90;99.90
41816;DHT22;27814;53.452;-6.180;2022-09-09T03:37:07;16.80;99.90
41816;DHT22;27814;53.452;-6.180;2022-09-09T03:39:35;16.80;99.90
41816;DHT22;27814;53.452;-6.180;2022-09-09T03:42:04;16.70;99.90
41816;DHT22;27814;53.452;-6.180;2022-09-09T03:44:32;16.70;99.90
41816;DHT22;27814;53.452;-6.180;2022-09-09T03:47:00;16.60;99.90
41816;DHT22;27814;53.452;-6.180;2022-09-09T03:49:30;16.60;99.90
41816;DHT22;27814;53.452;-6.180;2022-09-09T03:51:58;16.60;99.90
41816;DHT22;27814;53.452;-6.180;2022-09-09T03:54:27;16.60;99.90
41816;DHT22;27814;53.452;-6.180;2022-09-09T03:56:56;16.60;99.90
41816;DHT22;27814;53.452;-6.180;2022-09-09T03:59:24;16.70;99.90
41816;DHT22;27814;53.452;-6.180;2022-09-09T04:01:53;16.70;99.90
41816;DHT22;27814;53.452;-6.180;2022-09-09T04:04:24;16.60;99.90
41816;DHT22;27814;53.452;-6.180;2022-09-09T04:06:54;16.60;99.90
41816;DHT22;27814;53.452;-6.180;2022-09-09T04:09:22;16.60;99.90
41816;DHT22;27814;53.452;-6.180;2022-09-09T04:11:51;16.60;99.90
41816;DHT22;27814;53.452;-6.180;2022-09-09T04:14:20;16.60;99.90
41816;DHT22;27814;53.452;-6.180;2022-09-09T04:16:48;16.60;99.90
41816;DHT22;27814;53.452;-6.180;2022-09-09T04:19:17;16.60;99.90
41816;DHT22;27814;53.452;-6.180;2022-09-09T04:21:45;16.50;99.90
41816;DHT22;27814;53.452;-6.180;2022-09-09T04:24:17;16.60;99.90
41816;DHT22;27814;53.452;-6.180;2022-09-09T04:26:45;16.60;99.90
41816;DHT22;27814;53.452;-6.180;2022-09-09T04:29:14;16.60;99.90
41816;DHT22;27814;53.452;-6.180;2022-09-09T04:31:42;16.60;99.90
41816;DHT22;27814;53.452;-6.180;2022-09-09T04:34:11;16.60;99.90
41816;DHT22;27814;53.452;-6.180;2022-09-09T04:36:39;16.60;99.90
41816;DHT22;27814;53.452;-6.180;2022-09-09T04:39:08;16.60;99.90
41816;DHT22;27814;53.452;-6.180;2022-09-09T04:41:37;16.70;99.90
41816;DHT22;27814;53.452;-6.180;2022-09-09T04:44:06;16.60;99.90
41816;DHT22;27814;53.452;-6.180;2022-09-09T04:46:34;16.60;99.90
41816;DHT22;27814;53.452;-6.180;2022-09-09T04:49:02;16.50;99.90
41816;DHT22;27814;53.452;-6.180;2022-09-09T04:51:31;16.60;99.90
41816;DHT22;27814;53.452;-6.180;2022-09-09T04:53:59;16.60;99.90
41816;DHT22;27814;53.452;-6.180;2022-09-09T04:56:27;16.60;99.90
41816;DHT22;27814;53.452;-6.180;2022-09-09T04:58:57;16.60;99.90
41816;DHT22;27814;53.452;-6.180;2022-09-09T05:01:25;16.50;99.90
41816;DHT22;27814;53.452;-6.180;2022-09-09T05:03:54;16.50;99.90
41816;DHT22;27814;53.452;-6.180;2022-09-09T05:06:22;16.60;99.90
41816;DHT22;27814;53.452;-6.180;2022-09-09T05:08:51;16.60;99.90
41816;DHT22;27814;53.452;-6.180;2022-09-09T05:11:20;16.60;99.90
41816;DHT22;27814;53.452;-6.180;2022-09-09T05:13:50;16.60;99.90
41816;DHT22;27814;53.452;-6.180;2022-09-09T05:16:21;16.60;99.90
41816;DHT22;27814;53.452;-6.180;2022-09-09T05:18:50;16.60;99.90
41816;DHT22;27814;53.452;-6.180;2022-09-09T05:21:20;16.60;99.90
41816;DHT22;27814;53.452;-6.180;2022-09-09T05:23:50;16.60;99.90
41816;DHT22;27814;53.452;-6.180;2022-09-09T05:26:20;16.60;99.90
41816;DHT22;27814;53.452;-6.180;2022-09-09T05:28:48;16.60;99.90
41816;DHT22;27814;53.452;-6.180;2022-09-09T05:31:18;16.60;99.90
41816;DHT22;27814;53.452;-6.180;2022-09-09T05:33:48;16.70;99.90
41816;DHT22;27814;53.452;-6.180;2022-09-09T05:36:18;16.70;99.90
41816;DHT22;27814;53.452;-6.180;2022-09-09T05:38:47;16.70;99.90
41816;DHT22;27814;53.452;-6.180;2022-09-09T05:41:17;16.60;99.90
41816;DHT22;27814;53.452;-6.180;2022-09-09T05:43:46;16.60;99.90
41816;DHT22;27814;53.452;-6.180;2022-09-09T05:46:17;16.60;99.90
41816;DHT22;27814;53.452;-6.180;2022-09-09T05:48:48;16.70;99.90
41816;DHT22;27814;53.452;-6.180;2022-09-09T05:51:19;16.70;99.90
41816;DHT22;27814;53.452;-6.180;2022-09-09T05:53:49;16.70;99.90
41816;DHT22;27814;53.452;-6.180;2022-09-09T05:56:19;16.70;99.90
41816;DHT22;27814;53.452;-6.180;2022-09-09T05:58:49;16.60;99.90
41816;DHT22;27814;53.452;-6.180;2022-09-09T06:01:18;16.70;99.90
41816;DHT22;27814;53.452;-6.180;2022-09-09T06:03:50;16.70;99.90
41816;DHT22;27814;53.452;-6.180;2022-09-09T06:06:19;16.70;99.90
41816;DHT22;27814;53.452;-6.180;2022-09-09T06:08:51;16.70;99.90
41816;DHT22;27814;53.452;-6.180;2022-09-09T06:11:21;16.70;99.90
41816;DHT22;27814;53.452;-6.180;2022-09-09T06:13:50;16.80;99.90
41816;DHT22;27814;53.452;-6.180;2022-09-09T06:16:22;16.80;99.90
41816;DHT22;27814;53.452;-6.180;2022-09-09T06:18:52;16.80;99.90
41816;DHT22;27814;53.452;-6.180;2022-09-09T06:21:23;16.80;99.90
41816;DHT22;27814;53.452;-6.180;2022-09-09T06:23:52;16.80;99.90
41816;DHT22;27814;53.452;-6.180;2022-09-09T06:26:27;16.80;99.90
41816;DHT22;27814;53.452;-6.180;2022-09-09T06:28:59;16.90;99.90
41816;DHT22;27814;53.452;-6.180;2022-09-09T06:31:30;16.90;99.90
41816;DHT22;27814;53.452;-6.180;2022-09-09T06:34:05;16.90;99.90
41816;DHT22;27814;53.452;-6.180;2022-09-09T06:36:36;16.90;99.90
41816;DHT22;27814;53.452;-6.180;2022-09-09T06:39:06;16.90;99.90
41816;DHT22;27814;53.452;-6.180;2022-09-09T06:41:41;16.90;99.90
41816;DHT22;27814;53.452;-6.180;2022-09-09T06:44:09;16.90;99.90
41816;DHT22;27814;53.452;-6.180;2022-09-09T06:46:40;16.90;99.90
41816;DHT22;27814;53.452;-6.180;2022-09-09T06:49:10;17.00;99.90
41816;DHT22;27814;53.452;-6.180;2022-09-09T06:51:39;17.00;99.90
41816;DHT22;27814;53.452;-6.180;2022-09-09T06:54:10;17.00;99.90
41816;DHT22;27814;53.452;-6.180;2022-09-09T06:56:40;17.00;99.90
41816;DHT22;27814;53.452;-6.180;2022-09-09T06:59:11;17.00;99.90
41816;DHT22;27814;53.452;-6.180;2022-09-09T07:01:40;17.00;99.90
41816;DHT22;27814;53.452;-6.180;2022-09-09T07:04:12;17.00;99.90
41816;DHT22;27814;53.452;-6.180;2022-09-09T07:06:43;17.10;99.90
41816;DHT22;27814;53.452;-6.180;2022-09-09T07:09:13;17.10;99.90
41816;DHT22;27814;53.452;-6.180;2022-09-09T07:11:43;17.10;99.90
41816;DHT22;27814;53.452;-6.180;2022-09-09T07:14:11;17.10;99.90
41816;DHT22;27814;53.452;-6.180;2022-09-09T07:16:41;17.10;99.90
41816;DHT22;27814;53.452;-6.180;2022-09-09T07:19:11;17.10;99.90
41816;DHT22;27814;53.452;-6.180;2022-09-09T07:21:41;17.20;99.90
41816;DHT22;27814;53.452;-6.180;2022-09-09T07:24:10;17.30;99.90
41816;DHT22;27814;53.452;-6.180;2022-09-09T07:26:40;17.30;99.90
41816;DHT22;27814;53.452;-6.180;2022-09-09T07:29:09;17.30;99.90
41816;DHT22;27814;53.452;-6.180;2022-09-09T07:31:46;17.40;99.90
41816;DHT22;27814;53.452;-6.180;2022-09-09T07:34:16;17.40;99.90
41816;DHT22;27814;53.452;-6.180;2022-09-09T07:36:45;17.40;99.90
41816;DHT22;27814;53.452;-6.180;2022-09-09T07:39:15;17.40;99.90
41816;DHT22;27814;53.452;-6.180;2022-09-09T07:41:46;17.40;99.90
41816;DHT22;27814;53.452;-6.180;2022-09-09T07:44:16;17.40;99.90
41816;DHT22;27814;53.452;-6.180;2022-09-09T07:46:45;17.40;99.90
41816;DHT22;27814;53.452;-6.180;2022-09-09T07:49:16;17.40;99.90
41816;DHT22;27814;53.452;-6.180;2022-09-09T07:51:53;17.50;99.90
41816;DHT22;27814;53.452;-6.180;2022-09-09T07:54:21;17.50;99.90
41816;DHT22;27814;53.452;-6.180;2022-09-09T07:56:51;17.50;99.90
41816;DHT22;27814;53.452;-6.180;2022-09-09T07:59:20;17.60;99.90
41816;DHT22;27814;53.452;-6.180;2022-09-09T08:01:50;17.60;99.90
41816;DHT22;27814;53.452;-6.180;2022-09-09T08:04:23;17.60;99.90
41816;DHT22;27814;53.452;-6.180;2022-09-09T08:06:54;17.60;99.90
41816;DHT22;27814;53.452;-6.180;2022-09-09T08:09:23;17.70;99.90
41816;DHT22;27814;53.452;-6.180;2022-09-09T08:11:54;17.70;99.90
41816;DHT22;27814;53.452;-6.180;2022-09-09T08:14:23;17.70;99.90
41816;DHT22;27814;53.452;-6.180;2022-09-09T08:16:52;17.70;99.90
41816;DHT22;27814;53.452;-6.180;2022-09-09T08:19:22;17.70;99.90
41816;DHT22;27814;53.452;-6.180;2022-09-09T08:21:51;17.80;99.90
41816;DHT22;27814;53.452;-6.180;2022-09-09T08:24:20;17.90;99.90
41816;DHT22;27814;53.452;-6.180;2022-09-09T08:26:50;17.90;99.90
41816;DHT22;27814;53.452;-6.180;2022-09-09T08:29:18;18.00;99.90
41816;DHT22;27814;53.452;-6.180;2022-09-09T08:31:48;18.10;99.90
41816;DHT22;27814;53.452;-6.180;2022-09-09T08:34:18;18.20;99.90
41816;DHT22;27814;53.452;-6.180;2022-09-09T08:36:49;18.30;99.90
41816;DHT22;27814;53.452;-6.180;2022-09-09T08:39:18;18.30;99.90
41816;DHT22;27814;53.452;-6.180;2022-09-09T08:45:01;18.50;99.90
41816;DHT22;27814;53.452;-6.180;2022-09-09T08:47:35;18.50;99.90
41816;DHT22;27814;53.452;-6.180;2022-09-09T08:50:18;18.50;99.90
41816;DHT22;27814;53.452;-6.180;2022-09-09T08:52:54;18.60;99.90
41816;DHT22;27814;53.452;-6.180;2022-09-09T08:55:35;18.60;99.90
41816;DHT22;27814;53.452;-6.180;2022-09-09T08:58:12;18.70;99.90
41816;DHT22;27814;53.452;-6.180;2022-09-09T09:00:57;18.70;99.90
41816;DHT22;27814;53.452;-6.180;2022-09-09T09:03:35;18.70;99.90
41816;DHT22;27814;53.452;-6.180;2022-09-09T09:06:13;18.60;99.90
41816;DHT22;27814;53.452;-6.180;2022-09-09T09:08:53;18.60;99.90
41816;DHT22;27814;53.452;-6.180;2022-09-09T09:11:24;18.60;99.90
41816;DHT22;27814;53.452;-6.180;2022-09-09T09:13:56;18.70;99.90
41816;DHT22;27814;53.452;-6.180;2022-09-09T09:16:29;18.70;99.90
41816;DHT22;27814;53.452;-6.180;2022-09-09T09:19:00;18.70;99.90
41816;DHT22;27814;53.452;-6.180;2022-09-09T09:21:34;18.80;99.90
41816;DHT22;27814;53.452;-6.180;2022-09-09T09:24:11;18.80;99.90
41816;DHT22;27814;53.452;-6.180;2022-09-09T09:26:47;18.80;99.90
41816;DHT22;27814;53.452;-6.180;2022-09-09T09:29:18;18.90;99.90
41816;DHT22;27814;53.452;-6.180;2022-09-09T09:31:52;18.90;99.90
41816;DHT22;27814;53.452;-6.180;2022-09-09T09:34:21;19.00;99.90
41816;DHT22;27814;53.452;-6.180;2022-09-09T09:36:54;19.00;99.90
41816;DHT22;27814;53.452;-6.180;2022-09-09T09:39:25;19.10;99.90
41816;DHT22;27814;53.452;-6.180;2022-09-09T09:42:16;19.20;99.90
41816;DHT22;27814;53.452;-6.180;2022-09-09T09:44:49;19.20;99.90
41816;DHT22;27814;53.452;-6.180;2022-09-09T09:47:19;19.30;99.90
41816;DHT22;27814;53.452;-6.180;2022-09-09T09:49:54;19.40;99.90
41816;DHT22;27814;53.452;-6.180;2022-09-09T09:52:24;19.40;99.90
41816;DHT22;27814;53.452;-6.180;2022-09-09T09:54:56;19.40;99.90
41816;DHT22;27814;53.452;-6.180;2022-09-09T09:57:33;19.40;99.90
41816;DHT22;27814;53.452;-6.180;2022-09-09T10:00:04;19.40;99.90
41816;DHT22;27814;53.452;-6.180;2022-09-09T10:02:39;19.40;99.90
41816;DHT22;27814;53.452;-6.180;2022-09-09T10:05:14;19.50;99.90
41816;DHT22;27814;53.452;-6.180;2022-09-09T10:07:42;19.50;99.90
41816;DHT22;27814;53.452;-6.180;2022-09-09T10:10:19;19.50;99.90
41816;DHT22;27814;53.452;-6.180;2022-09-09T10:12:55;19.50;99.90
41816;DHT22;27814;53.452;-6.180;2022-09-09T10:15:34;19.50;99.90
41816;DHT22;27814;53.452;-6.180;2022-09-09T10:18:24;19.50;99.90
41816;DHT22;27814;53.452;-6.180;2022-09-09T10:21:02;19.50;99.90
41816;DHT22;27814;53.452;-6.180;2022-09-09T10:23:45;19.50;99.90
41816;DHT22;27814;53.452;-6.180;2022-09-09T10:26:28;19.50;99.90
41816;DHT22;27814;53.452;-6.180;2022-09-09T10:29:10;19.50;99.90
41816;DHT22;27814;53.452;-6.180;2022-09-09T10:31:52;19.40;99.90
41816;DHT22;27814;53.452;-6.180;2022-09-09T10:34:37;19.40;99.90
41816;DHT22;27814;53.452;-6.180;2022-09-09T10:37:18;19.40;99.90
41816;DHT22;27814;53.452;-6.180;2022-09-09T10:39:59;19.30;99.90
41816;DHT22;27814;53.452;-6.180;2022-09-09T10:42:31;19.40;99.90
41816;DHT22;27814;53.452;-6.180;2022-09-09T10:45:10;19.50;99.90
41816;DHT22;27814;53.452;-6.180;2022-09-09T10:47:59;19.70;99.90
41816;DHT22;27814;53.452;-6.180;2022-09-09T10:50:43;19.80;99.90
41816;DHT22;27814;53.452;-6.180;2022-09-09T10:53:36;19.80;99.90
41816;DHT22;27814;53.452;-6.180;2022-09-09T10:56:08;19.70;99.90
41816;DHT22;27814;53.452;-6.180;2022-09-09T10:58:44;19.70;99.90
41816;DHT22;27814;53.452;-6.180;2022-09-09T11:01:18;19.60;99.90
41816;DHT22;27814;53.452;-6.180;2022-09-09T11:03:53;19.60;99.90
41816;DHT22;27814;53.452;-6.180;2022-09-09T11:06:28;19.60;99.90
41816;DHT22;27814;53.452;-6.180;2022-09-09T11:08:58;19.50;99.90
41816;DHT22;27814;53.452;-6.180;2022-09-09T11:11:34;19.60;99.90
41816;DHT22;27814;53.452;-6.180;2022-09-09T11:14:12;19.70;99.90
41816;DHT22;27814;53.452;-6.180;2022-09-09T11:16:47;19.80;99.90
41816;DHT22;27814;53.452;-6.180;2022-09-09T11:19:24;19.90;99.90
41816;DHT22;27814;53.452;-6.180;2022-09-09T11:21:55;20.10;99.90
41816;DHT22;27814;53.452;-6.180;2022-09-09T11:24:28;20.00;99.90
41816;DHT22;27814;53.452;-6.180;2022-09-09T11:27:02;20.00;99.90
41816;DHT22;27814;53.452;-6.180;2022-09-09T11:30:01;20.00;99.90
41816;DHT22;27814;53.452;-6.180;2022-09-09T11:32:53;20.10;99.90
41816;DHT22;27814;53.452;-6.180;2022-09-09T11:35:33;20.20;99.90
41816;DHT22;27814;53.452;-6.180;2022-09-09T11:38:18;20.30;99.90
41816;DHT22;27814;53.452;-6.180;2022-09-09T11:40:55;20.40;99.90
41816;DHT22;27814;53.452;-6.180;2022-09-09T11:43:28;20.40;99.90
41816;DHT22;27814;53.452;-6.180;2022-09-09T11:46:01;20.50;99.90
41816;DHT22;27814;53.452;-6.180;2022-09-09T11:48:33;20.50;99.90
41816;DHT22;27814;53.452;-6.180;2022-09-09T11:51:05;20.60;99.90
41816;DHT22;27814;53.452;-6.180;2022-09-09T11:53:48;20.70;99.90
41816;DHT22;27814;53.452;-6.180;2022-09-09T11:56:28;20.70;99.90
41816;DHT22;27814;53.452;-6.180;2022-09-09T11:59:00;20.70;99.90
41816;DHT22;27814;53.452;-6.180;2022-09-09T12:01:42;20.70;99.90
41816;DHT22;27814;53.452;-6.180;2022-09-09T12:04:32;20.70;99.90
41816;DHT22;27814;53.452;-6.180;2022-09-09T12:07:05;20.80;99.90
41816;DHT22;27814;53.452;-6.180;2022-09-09T12:09:50;20.80;99.90
41816;DHT22;27814;53.452;-6.180;2022-09-09T12:12:30;20.80;99.90
41816;DHT22;27814;53.452;-6.180;2022-09-09T12:15:21;20.80;99.90
41816;DHT22;27814;53.452;-6.180;2022-09-09T12:17:52;20.80;99.90
41816;DHT22;27814;53.452;-6.180;2022-09-09T12:20:31;20.80;99.90
41816;DHT22;27814;53.452;-6.180;2022-09-09T12:23:24;20.80;99.90
41816;DHT22;27814;53.452;-6.180;2022-09-09T12:26:06;20.80;99.90
41816;DHT22;27814;53.452;-6.180;2022-09-09T12:29:01;20.80;99.90
41816;DHT22;27814;53.452;-6.180;2022-09-09T12:31:38;20.80;99.90
41816;DHT22;27814;53.452;-6.180;2022-09-09T12:34:16;20.80;99.90
41816;DHT22;27814;53.452;-6.180;2022-09-09T12:36:50;20.80;99.90
41816;DHT22;27814;53.452;-6.180;2022-09-09T12:39:31;20.70;99.90
41816;DHT22;27814;53.452;-6.180;2022-09-09T12:42:01;20.80;99.90
41816;DHT22;27814;53.452;-6.180;2022-09-09T12:44:30;20.80;99.90
41816;DHT22;27814;53.452;-6.180;2022-09-09T12:47:01;20.70;99.90
41816;DHT22;27814;53.452;-6.180;2022-09-09T12:49:34;20.70;99.90
41816;DHT22;27814;53.452;-6.180;2022-09-09T12:52:05;20.80;99.90
41816;DHT22;27814;53.452;-6.180;2022-09-09T12:54:35;20.90;99.90
41816;DHT22;27814;53.452;-6.180;2022-09-09T12:57:05;21.10;99.90
41816;DHT22;27814;53.452;-6.180;2022-09-09T12:59:38;21.30;99.90
41816;DHT22;27814;53.452;-6.180;2022-09-09T13:02:18;21.40;99.90
41816;DHT22;27814;53.452;-6.180;2022-09-09T13:04:49;21.50;99.90
41816;DHT22;27814;53.452;-6.180;2022-09-09T13:07:18;21.50;99.90
41816;DHT22;27814;53.452;-6.180;2022-09-09T13:09:48;21.50;99.90
41816;DHT22;27814;53.452;-6.180;2022-09-09T13:12:18;21.50;99.90
41816;DHT22;27814;53.452;-6.180;2022-09-09T13:14:49;21.40;99.90
41816;DHT22;27814;53.452;-6.180;2022-09-09T13:17:21;21.30;99.90
41816;DHT22;27814;53.452;-6.180;2022-09-09T13:19:51;21.30;99.90
41816;DHT22;27814;53.452;-6.180;2022-09-09T13:22:24;21.20;99.90
41816;DHT22;27814;53.452;-6.180;2022-09-09T13:25:02;21.10;99.90
41816;DHT22;27814;53.452;-6.180;2022-09-09T13:27:32;21.20;99.90
41816;DHT22;27814;53.452;-6.180;2022-09-09T13:30:01;21.20;99.90
41816;DHT22;27814;53.452;-6.180;2022-09-09T13:32:29;21.20;99.90
41816;DHT22;27814;53.452;-6.180;2022-09-09T13:35:01;21.10;99.90
41816;DHT22;27814;53.452;-6.180;2022-09-09T13:37:33;21.10;99.90
41816;DHT22;27814;53.452;-6.180;2022-09-09T13:40:03;21.10;99.90
41816;DHT22;27814;53.452;-6.180;2022-09-09T13:42:34;20.90;99.90
41816;DHT22;27814;53.452;-6.180;2022-09-09T13:45:05;20.90;99.90
41816;DHT22;27814;53.452;-6.180;2022-09-09T13:47:35;20.90;99.90
41816;DHT22;27814;53.452;-6.180;2022-09-09T13:50:18;20.90;99.90
41816;DHT22;27814;53.452;-6.180;2022-09-09T13:52:47;20.90;99.90
41816;DHT22;27814;53.452;-6.180;2022-09-09T13:55:18;20.90;99.90
41816;DHT22;27814;53.452;-6.180;2022-09-09T13:57:52;20.80;99.90
41816;DHT22;27814;53.452;-6.180;2022-09-09T14:00:21;20.70;99.90
41816;DHT22;27814;53.452;-6.180;2022-09-09T14:02:51;20.60;99.90
41816;DHT22;27814;53.452;-6.180;2022-09-09T14:05:23;20.50;99.90
41816;DHT22;27814;53.452;-6.180;2022-09-09T14:07:52;20.50;99.90
41816;DHT22;27814;53.452;-6.180;2022-09-09T14:10:20;20.50;99.90
41816;DHT22;27814;53.452;-6.180;2022-09-09T14:12:49;20.50;99.90
41816;DHT22;27814;53.452;-6.180;2022-09-09T14:15:17;20.60;99.90
41816;DHT22;27814;53.452;-6.180;2022-09-09T14:17:46;20.50;99.90
41816;DHT22;27814;53.452;-6.180;2022-09-09T14:20:15;20.50;99.90
41816;DHT22;27814;53.452;-6.180;2022-09-09T14:22:46;20.40;99.90
41816;DHT22;27814;53.452;-6.180;2022-09-09T14:25:14;20.40;99.90
41816;DHT22;27814;53.452;-6.180;2022-09-09T14:27:42;20.50;99.90
41816;DHT22;27814;53.452;-6.180;2022-09-09T14:30:12;20.60;99.90
41816;DHT22;27814;53.452;-6.180;2022-09-09T14:32:41;20.70;99.90
41816;DHT22;27814;53.452;-6.180;2022-09-09T14:35:09;20.80;99.90
41816;DHT22;27814;53.452;-6.180;2022-09-09T14:37:38;20.90;99.90
41816;DHT22;27814;53.452;-6.180;2022-09-09T14:40:09;20.90;99.90
41816;DHT22;27814;53.452;-6.180;2022-09-09T14:42:38;21.00;99.90
41816;DHT22;27814;53.452;-6.180;2022-09-09T14:45:07;21.20;99.90
41816;DHT22;27814;53.452;-6.180;2022-09-09T14:47:36;21.40;99.90
41816;DHT22;27814;53.452;-6.180;2022-09-09T14:50:05;21.50;99.90
41816;DHT22;27814;53.452;-6.180;2022-09-09T14:52:34;21.50;99.90
41816;DHT22;27814;53.452;-6.180;2022-09-09T14:55:04;21.70;99.90
41816;DHT22;27814;53.452;-6.180;2022-09-09T14:57:34;21.90;99.90
41816;DHT22;27814;53.452;-6.180;2022-09-09T15:00:03;22.10;99.90
41816;DHT22;27814;53.452;-6.180;2022-09-09T15:02:32;22.30;99.90
41816;DHT22;27814;53.452;-6.180;2022-09-09T15:05:01;22.40;99.90
41816;DHT22;27814;53.452;-6.180;2022-09-09T15:07:29;22.50;99.90
41816;DHT22;27814;53.452;-6.180;2022-09-09T15:09:58;22.60;99.90
41816;DHT22;27814;53.452;-6.180;2022-09-09T15:12:27;22.80;99.90
41816;DHT22;27814;53.452;-6.180;2022-09-09T15:14:57;22.80;99.90
41816;DHT22;27814;53.452;-6.180;2022-09-09T15:17:25;22.80;99.90
41816;DHT22;27814;53.452;-6.180;2022-09-09T15:19:54;22.70;99.90
41816;DHT22;27814;53.452;-6.180;2022-09-09T15:22:22;22.60;99.90
41816;DHT22;27814;53.452;-6.180;2022-09-09T15:24:51;22.50;99.90
41816;DHT22;27814;53.452;-6.180;2022-09-09T15:27:20;22.40;99.90
41816;DHT22;27814;53.452;-6.180;2022-09-09T15:29:49;22.40;99.90
41816;DHT22;27814;53.452;-6.180;2022-09-09T15:32:19;22.40;99.90
41816;DHT22;27814;53.452;-6.180;2022-09-09T15:34:48;22.30;99.90
41816;DHT22;27814;53.452;-6.180;2022-09-09T15:37:18;22.30;99.90
41816;DHT22;27814;53.452;-6.180;2022-09-09T15:39:46;22.20;99.90
41816;DHT22;27814;53.452;-6.180;2022-09-09T15:42:15;22.20;99.90
41816;DHT22;27814;53.452;-6.180;2022-09-09T15:44:43;22.10;99.90
41816;DHT22;27814;53.452;-6.180;2022-09-09T15:47:12;22.10;99.90
41816;DHT22;27814;53.452;-6.180;2022-09-09T15:49:43;22.00;99.90
41816;DHT22;27814;53.452;-6.180;2022-09-09T15:52:11;21.90;99.90
41816;DHT22;27814;53.452;-6.180;2022-09-09T15:54:39;21.80;99.90